Time;durP1;ratioP1;P1;durP2;ratioP2;P2;SDS_P1;SDS_P2;PMS_P1;PMS_P2;Temp;Humidity;BMP_temperature;BMP_pressure;BME280_temperature;BME280_humidity;BME280_pressure;Samples;Min_cycle;Max_cycle;Signal;HPM_P1;HPM_P2
2024/02/25 00:02:07;;;;;;;0.53;0.50;;;5.30;99.90;;;;;;5075640;28;20233;-90
2024/02/25 00:04:32;;;;;;;0.30;0.30;;;5.30;99.90;;;;;;5075076;28;20229;-89
2024/02/25 00:06:58;;;;;;;0.47;0.47;;;5.00;99.90;;;;;;5074884;28;20715;-91
2024/02/25 00:09:24;;;;;;;0.60;0.60;;;5.20;99.90;;;;;;5058248;28;20201;-89
2024/02/25 00:11:50;;;;;;;0.30;0.30;;;5.20;99.90;;;;;;5074188;28;20294;-90
2024/02/25 00:14:15;;;;;;;0.30;0.30;;;4.80;99.90;;;;;;5057429;28;20257;-87
2024/02/25 00:16:41;;;;;;;0.80;0.80;;;4.80;99.90;;;;;;5057314;28;20294;-88
2024/02/25 00:19:07;;;;;;;0.73;0.73;;;4.80;99.90;;;;;;5075778;28;20571;-88
2024/02/25 00:21:33;;;;;;;0.40;0.40;;;4.80;99.90;;;;;;5058565;28;20258;-89
2024/02/25 00:23:59;;;;;;;0.30;0.30;;;4.90;99.90;;;;;;5074033;28;20224;-89
2024/02/25 00:26:28;;;;;;;1.57;1.17;;;4.70;99.90;;;;;;5074378;28;20370;-90
2024/02/25 00:28:54;;;;;;;0.30;0.30;;;4.90;99.90;;;;;;5074820;28;20277;-89
2024/02/25 00:31:20;;;;;;;0.40;0.40;;;4.60;99.90;;;;;;5074350;28;20741;-90
2024/02/25 00:33:47;;;;;;;0.97;0.60;;;4.80;99.90;;;;;;5074513;28;20201;-90
2024/02/25 00:36:13;;;;;;;0.43;0.43;;;4.70;99.90;;;;;;5049637;28;20236;-89
2024/02/25 00:38:38;;;;;;;0.40;0.40;;;4.70;99.90;;;;;;5074276;28;20643;-89
2024/02/25 00:41:05;;;;;;;1.10;1.10;;;4.60;99.90;;;;;;5074326;28;20578;-91
2024/02/25 00:43:31;;;;;;;0.77;0.53;;;4.80;99.90;;;;;;5074311;28;20600;-90
2024/02/25 00:45:57;;;;;;;0.40;0.40;;;4.70;99.90;;;;;;5074392;28;20237;-90
2024/02/25 00:48:23;;;;;;;0.40;0.40;;;4.50;99.90;;;;;;5073677;28;20217;-91
2024/02/25 00:50:50;;;;;;;0.57;0.57;;;4.50;99.90;;;;;;5056186;28;20627;-90
2024/02/25 00:53:16;;;;;;;0.60;0.60;;;4.60;99.90;;;;;;5073847;28;20233;-90
2024/02/25 00:55:42;;;;;;;0.20;0.20;;;4.60;99.90;;;;;;5073960;28;20239;-89
2024/02/25 00:58:08;;;;;;;0.30;0.30;;;4.90;99.90;;;;;;5073635;28;20225;-90
2024/02/25 01:00:34;;;;;;;0.50;0.50;;;4.60;99.90;;;;;;5074828;28;20293;-90
2024/02/25 01:03:00;;;;;;;0.10;0.10;;;4.90;99.90;;;;;;5073888;28;20647;-90
2024/02/25 01:05:26;;;;;;;1.00;1.00;;;4.60;99.90;;;;;;5040271;28;20225;-90
2024/02/25 01:07:54;;;;;;;0.40;0.40;;;4.90;99.90;;;;;;5073615;28;20681;-90
2024/02/25 01:10:20;;;;;;;0.60;0.60;;;5.00;99.90;;;;;;5073544;28;20225;-89
2024/02/25 01:12:45;;;;;;;0.80;0.80;;;5.00;99.90;;;;;;5074010;28;20204;-89
2024/02/25 01:15:11;;;;;;;0.40;0.40;;;4.90;99.90;;;;;;5074467;28;20229;-90
2024/02/25 01:17:37;;;;;;;0.83;0.83;;;4.90;99.90;;;;;;5057280;28;20282;-90
2024/02/25 01:20:04;;;;;;;2.33;0.90;;;4.80;99.90;;;;;;5056653;28;20709;-90
2024/02/25 01:22:29;;;;;;;0.50;0.50;;;4.80;99.90;;;;;;5073389;28;20233;-91
2024/02/25 01:24:58;;;;;;;0.40;0.40;;;5.00;99.90;;;;;;5073752;28;20811;-90
2024/02/25 01:27:27;;;;;;;0.40;0.40;;;4.80;99.90;;;;;;5074565;28;20224;-89
2024/02/25 01:29:55;;;;;;;0.50;0.50;;;4.80;99.90;;;;;;5063864;28;20245;-90
2024/02/25 01:32:21;;;;;;;0.93;0.93;;;4.90;99.90;;;;;;5065806;28;20316;-89
2024/02/25 01:34:47;;;;;;;0.53;0.53;;;5.10;99.90;;;;;;5056664;28;20233;-91
2024/02/25 01:37:14;;;;;;;0.90;0.90;;;5.10;99.90;;;;;;5073103;28;20594;-90
2024/02/25 01:39:40;;;;;;;0.30;0.30;;;5.00;99.90;;;;;;5074666;28;20216;-91
2024/02/25 01:42:06;;;;;;;0.50;0.50;;;5.30;99.90;;;;;;5073941;28;20316;-88
2024/02/25 01:44:47;;;;;;;0.40;0.40;;;5.30;99.90;;;;;;5073271;28;20287;-90
2024/02/25 01:47:13;;;;;;;1.13;1.03;;;5.20;99.90;;;;;;5078559;28;20315;-90
2024/02/25 01:49:39;;;;;;;2.10;1.23;;;5.10;99.90;;;;;;5076385;28;20248;-89
2024/02/25 01:52:05;;;;;;;0.70;0.70;;;5.20;99.90;;;;;;5059163;28;20207;-89
2024/02/25 01:54:31;;;;;;;1.67;1.30;;;5.00;99.90;;;;;;5076922;28;20680;-90
2024/02/25 01:56:57;;;;;;;1.23;0.70;;;5.10;99.90;;;;;;5050007;28;20681;-91
2024/02/25 01:59:23;;;;;;;0.50;0.50;;;5.00;99.90;;;;;;5067014;28;20236;-90
2024/02/25 02:01:49;;;;;;;1.00;1.00;;;5.20;99.90;;;;;;5092802;28;20243;-91
2024/02/25 02:04:15;;;;;;;1.63;1.37;;;5.20;99.90;;;;;;5059471;28;20283;-89
2024/02/25 02:06:43;;;;;;;1.10;1.03;;;5.40;99.90;;;;;;5060053;28;20193;-90
2024/02/25 02:09:10;;;;;;;0.87;0.87;;;5.20;99.90;;;;;;5059325;28;20751;-90
2024/02/25 02:11:36;;;;;;;1.00;1.00;;;5.10;99.90;;;;;;5093597;28;20232;-89
2024/02/25 02:14:02;;;;;;;0.40;0.40;;;5.00;99.90;;;;;;5093685;28;20243;-89
2024/02/25 02:16:28;;;;;;;0.20;0.20;;;5.00;99.90;;;;;;5093624;28;20232;-91
2024/02/25 02:19:01;;;;;;;6.63;0.77;;;5.00;99.90;;;;;;5076223;28;20200;-90
2024/02/25 02:21:28;;;;;;;0.33;0.33;;;4.90;99.90;;;;;;5075703;28;20225;-90
2024/02/25 02:23:53;;;;;;;0.40;0.40;;;5.30;99.90;;;;;;5075851;28;20224;-89
2024/02/25 02:26:20;;;;;;;0.30;0.30;;;4.90;99.90;;;;;;5058862;28;20389;-91
2024/02/25 02:28:46;;;;;;;0.83;0.83;;;5.00;99.90;;;;;;5075914;28;20687;-91
2024/02/25 02:31:19;;;;;;;1.50;1.40;;;5.30;99.90;;;;;;5047428;28;20200;-92
2024/02/25 02:33:46;;;;;;;0.90;0.90;;;5.20;99.90;;;;;;5063339;28;20188;-91
2024/02/25 02:36:14;;;;;;;1.07;1.00;;;5.40;99.90;;;;;;5075803;28;20232;-91
2024/02/25 02:38:44;;;;;;;1.40;1.40;;;5.20;99.90;;;;;;5075808;28;20231;-91
2024/02/25 02:41:10;;;;;;;0.40;0.40;;;5.30;99.90;;;;;;5075261;28;20251;-91
2024/02/25 02:43:39;;;;;;;0.30;0.30;;;5.00;99.90;;;;;;5058692;28;20311;-91
2024/02/25 02:46:05;;;;;;;0.73;0.73;;;5.30;99.90;;;;;;5062064;28;20244;-91
2024/02/25 02:48:31;;;;;;;1.17;1.07;;;5.40;99.90;;;;;;5057060;28;20197;-89
2024/02/25 02:50:56;;;;;;;2.13;0.80;;;5.40;99.90;;;;;;5072194;28;20240;-91
2024/02/25 02:53:24;;;;;;;1.03;1.03;;;5.00;99.90;;;;;;5072429;28;20229;-91
2024/02/25 02:55:50;;;;;;;0.30;0.30;;;5.20;99.90;;;;;;5055250;28;20235;-91
2024/02/25 02:58:16;;;;;;;0.80;0.80;;;5.30;99.90;;;;;;5071866;28;20307;-91
2024/02/25 03:00:42;;;;;;;0.57;0.57;;;5.20;99.90;;;;;;5072427;28;20201;-91
2024/02/25 03:03:07;;;;;;;0.93;0.93;;;5.20;99.90;;;;;;5072063;28;20233;-91
2024/02/25 03:05:33;;;;;;;0.70;0.70;;;5.10;99.90;;;;;;5071921;28;20709;-91
2024/02/25 03:07:59;;;;;;;0.10;0.10;;;5.50;99.90;;;;;;5071595;28;20677;-90
2024/02/25 03:10:25;;;;;;;0.60;0.60;;;5.40;99.90;;;;;;5071913;28;20229;-91
2024/02/25 03:12:53;;;;;;;0.60;0.60;;;5.20;99.90;;;;;;5071716;28;20227;-91
2024/02/25 03:15:19;;;;;;;0.50;0.50;;;5.10;99.90;;;;;;5071543;28;20232;-90
2024/02/25 03:17:48;;;;;;;0.60;0.60;;;5.60;99.90;;;;;;5055457;28;20239;-91
2024/02/25 03:20:14;;;;;;;0.60;0.60;;;5.60;99.90;;;;;;5072574;28;20658;-90
2024/02/25 03:22:42;;;;;;;1.90;1.80;;;5.20;99.90;;;;;;5071623;28;20237;-92
2024/02/25 03:25:08;;;;;;;0.40;0.40;;;5.40;99.90;;;;;;5054921;28;20197;-90
2024/02/25 03:27:37;;;;;;;0.90;0.90;;;5.60;99.90;;;;;;5072359;28;20205;-89
2024/02/25 03:30:10;;;;;;;0.80;0.80;;;5.40;99.90;;;;;;5071815;28;20228;-90
2024/02/25 03:32:35;;;;;;;1.07;1.07;;;5.70;99.90;;;;;;5054487;28;20300;-90
2024/02/25 03:35:02;;;;;;;0.63;0.63;;;5.50;99.90;;;;;;5071643;28;20260;-89
2024/02/25 03:37:27;;;;;;;0.47;0.40;;;5.50;99.90;;;;;;5071462;28;20232;-91
2024/02/25 03:39:53;;;;;;;0.67;0.67;;;5.70;99.90;;;;;;5072140;28;20193;-90
2024/02/25 03:42:19;;;;;;;0.60;0.60;;;5.40;99.90;;;;;;5071653;28;20608;-91
2024/02/25 03:44:45;;;;;;;1.13;1.03;;;5.40;99.90;;;;;;5073386;28;20244;-91
2024/02/25 03:47:13;;;;;;;0.50;0.50;;;5.60;99.90;;;;;;5074860;28;20262;-90
2024/02/25 03:49:42;;;;;;;0.80;0.80;;;5.80;99.90;;;;;;5057946;28;20236;-91
2024/02/25 03:52:08;;;;;;;0.73;0.60;;;5.50;99.90;;;;;;5058021;28;20346;-90
2024/02/25 03:54:34;;;;;;;0.30;0.30;;;5.70;99.90;;;;;;5075862;28;20212;-90
2024/02/25 03:57:00;;;;;;;0.70;0.70;;;5.90;99.90;;;;;;5047421;28;20677;-90
2024/02/25 03:59:29;;;;;;;0.87;0.87;;;5.50;99.90;;;;;;5074527;28;20676;-90
2024/02/25 04:01:55;;;;;;;1.10;0.80;;;5.70;99.90;;;;;;5058791;28;20255;-91
2024/02/25 04:04:20;;;;;;;0.40;0.40;;;5.50;99.90;;;;;;5057891;28;20664;-90
2024/02/25 04:06:54;;;;;;;0.33;0.33;;;5.80;99.90;;;;;;5058490;28;20197;-91
2024/02/25 04:09:20;;;;;;;0.33;0.33;;;5.80;99.90;;;;;;5065819;28;20229;-91
2024/02/25 04:11:46;;;;;;;0.80;0.80;;;5.50;99.90;;;;;;5074811;28;20258;-90
2024/02/25 04:14:11;;;;;;;0.60;0.60;;;5.70;99.90;;;;;;5058089;28;20224;-90
2024/02/25 04:16:41;;;;;;;1.37;1.27;;;5.70;99.90;;;;;;5075043;28;20311;-92
2024/02/25 04:19:09;;;;;;;1.03;1.03;;;5.90;99.90;;;;;;5074331;28;20197;-91
2024/02/25 04:21:36;;;;;;;0.20;0.20;;;5.40;99.90;;;;;;5075816;28;20305;-92
2024/02/25 04:24:04;;;;;;;1.50;1.40;;;5.80;99.90;;;;;;5091886;28;20228;-91
2024/02/25 04:26:30;;;;;;;0.30;0.30;;;5.80;99.90;;;;;;5069133;28;20264;-89
2024/02/25 04:28:56;;;;;;;0.93;0.93;;;5.60;99.90;;;;;;5095150;28;20232;-91
2024/02/25 04:31:22;;;;;;;0.57;0.57;;;5.70;99.90;;;;;;5078078;28;20680;-91
2024/02/25 04:33:48;;;;;;;0.60;0.60;;;5.60;99.90;;;;;;5078919;28;20620;-90
2024/02/25 04:36:18;;;;;;;0.93;0.93;;;5.70;99.90;;;;;;5077875;28;20727;-90
2024/02/25 04:38:44;;;;;;;1.80;0.50;;;5.50;99.90;;;;;;5095908;28;20247;-90
2024/02/25 04:41:10;;;;;;;0.80;0.80;;;5.90;99.90;;;;;;5095504;28;20224;-90
2024/02/25 04:43:36;;;;;;;0.40;0.40;;;5.90;99.90;;;;;;5094271;28;20228;-91
2024/02/25 04:46:02;;;;;;;1.13;1.13;;;5.70;99.90;;;;;;5077190;28;20240;-91
2024/02/25 04:48:27;;;;;;;0.97;0.80;;;5.60;99.90;;;;;;5061424;28;20289;-92
2024/02/25 04:50:56;;;;;;;0.50;0.50;;;5.60;99.90;;;;;;5078201;28;20250;-91
2024/02/25 04:53:31;;;;;;;0.30;0.30;;;5.90;99.90;;;;;;5095370;28;20596;-91
2024/02/25 04:55:57;;;;;;;0.23;0.23;;;5.70;99.90;;;;;;5094215;28;20587;-90
2024/02/25 04:58:23;;;;;;;0.50;0.50;;;5.70;99.90;;;;;;5077181;28;20225;-91
2024/02/25 05:00:48;;;;;;;0.40;0.40;;;5.80;99.90;;;;;;5078254;28;20200;-91
2024/02/25 05:03:14;;;;;;;0.50;0.50;;;5.70;99.90;;;;;;5095405;28;20312;-91
2024/02/25 05:05:40;;;;;;;1.03;0.93;;;6.00;99.90;;;;;;5077159;28;20350;-91
2024/02/25 05:08:06;;;;;;;0.93;0.83;;;5.90;99.90;;;;;;5077155;28;20683;-91
2024/02/25 05:10:31;;;;;;;0.57;0.57;;;5.90;99.90;;;;;;5060703;28;20676;-91
2024/02/25 05:12:57;;;;;;;0.20;0.20;;;5.70;99.90;;;;;;5060576;28;20204;-90
2024/02/25 05:15:23;;;;;;;1.03;0.93;;;6.10;99.90;;;;;;5077591;28;20670;-90
2024/02/25 05:17:49;;;;;;;0.70;0.70;;;5.80;99.90;;;;;;5076876;28;20236;-91
2024/02/25 05:20:15;;;;;;;1.43;1.33;;;5.70;99.90;;;;;;5051622;28;20228;-91
2024/02/25 05:22:41;;;;;;;0.80;0.80;;;5.80;99.90;;;;;;5076725;28;20644;-91
2024/02/25 05:25:07;;;;;;;1.90;1.23;;;5.90;99.90;;;;;;5093582;28;20207;-89
2024/02/25 05:27:36;;;;;;;0.53;0.50;;;5.60;99.90;;;;;;5094157;28;20661;-89
2024/02/25 05:30:06;;;;;;;0.50;0.50;;;5.80;99.90;;;;;;5077196;28;20228;-91
2024/02/25 05:32:32;;;;;;;0.90;0.90;;;5.80;99.90;;;;;;5076820;28;20323;-91
2024/02/25 05:34:57;;;;;;;0.60;0.60;;;5.80;99.90;;;;;;5094012;28;20232;-91
2024/02/25 05:37:25;;;;;;;0.83;0.53;;;5.80;99.90;;;;;;5059711;28;20232;-90
2024/02/25 05:39:51;;;;;;;1.03;0.60;;;5.80;99.90;;;;;;5094988;28;20197;-89
2024/02/25 05:42:18;;;;;;;0.57;0.57;;;5.50;99.90;;;;;;5076835;28;20262;-90
2024/02/25 05:44:44;;;;;;;0.63;0.63;;;5.90;99.90;;;;;;5076091;28;20319;-90
2024/02/25 05:47:10;;;;;;;0.97;0.87;;;5.70;99.90;;;;;;5076276;28;20709;-91
2024/02/25 05:49:39;;;;;;;0.33;0.33;;;5.70;99.90;;;;;;5093007;28;20237;-90
2024/02/25 05:52:05;;;;;;;0.30;0.30;;;5.80;99.90;;;;;;5059942;28;20226;-91
2024/02/25 05:54:31;;;;;;;0.20;0.20;;;5.90;99.90;;;;;;5076810;28;20674;-91
2024/02/25 05:56:56;;;;;;;0.60;0.50;;;5.80;99.90;;;;;;5093301;28;20282;-91
2024/02/25 05:59:22;;;;;;;0.80;0.80;;;5.80;99.90;;;;;;5094345;28;20257;-90
2024/02/25 06:01:51;;;;;;;1.47;1.40;;;5.60;99.90;;;;;;5076693;28;20228;-92
2024/02/25 06:04:19;;;;;;;1.27;1.27;;;5.90;99.90;;;;;;5093711;28;20648;-89
2024/02/25 06:06:54;;;;;;;0.60;0.60;;;5.70;99.90;;;;;;5060060;28;20250;-90
2024/02/25 06:09:21;;;;;;;0.90;0.80;;;6.00;99.90;;;;;;5067513;28;20235;-91
2024/02/25 06:11:48;;;;;;;0.50;0.50;;;5.80;99.90;;;;;;5085070;28;20232;-89
2024/02/25 06:14:17;;;;;;;5.00;0.97;;;5.70;99.90;;;;;;5094029;28;20247;-90
2024/02/25 06:16:43;;;;;;;1.00;1.00;;;5.90;99.90;;;;;;5075845;28;20290;-88
2024/02/25 06:19:11;;;;;;;0.60;0.60;;;5.60;99.90;;;;;;5059077;28;20197;-90
2024/02/25 06:21:41;;;;;;;1.00;0.93;;;5.90;99.90;;;;;;5060452;28;20207;-89
2024/02/25 06:24:07;;;;;;;1.13;0.87;;;5.80;99.90;;;;;;5075478;28;20765;-90
2024/02/25 06:26:33;;;;;;;0.60;0.47;;;6.00;99.90;;;;;;5075511;28;20260;-91
2024/02/25 06:28:59;;;;;;;2.57;1.23;;;6.00;99.90;;;;;;5075672;28;20250;-90
2024/02/25 06:31:26;;;;;;;1.50;0.77;;;5.90;99.90;;;;;;5092355;28;20236;-91
2024/02/25 06:33:52;;;;;;;0.60;0.60;;;6.10;99.90;;;;;;5076175;28;20242;-90
2024/02/25 06:36:19;;;;;;;0.63;0.63;;;6.00;99.90;;;;;;5075812;28;20236;-91
2024/02/25 06:38:46;;;;;;;1.30;1.20;;;5.60;99.90;;;;;;5066013;28;20237;-90
2024/02/25 06:41:19;;;;;;;0.47;0.47;;;5.70;99.90;;;;;;5093340;28;20294;-91
2024/02/25 06:43:45;;;;;;;0.63;0.63;;;5.80;99.90;;;;;;5075631;28;20312;-91
2024/02/25 06:46:14;;;;;;;0.57;0.57;;;5.80;99.90;;;;;;5074892;28;20240;-91
2024/02/25 06:48:40;;;;;;;0.57;0.57;;;6.00;99.90;;;;;;5075081;28;20192;-91
2024/02/25 06:51:08;;;;;;;0.90;0.90;;;5.90;99.90;;;;;;5075258;28;20713;-91
2024/02/25 06:53:35;;;;;;;0.87;0.87;;;5.90;99.90;;;;;;5050672;28;20236;-91
2024/02/25 06:56:01;;;;;;;1.33;1.33;;;6.20;99.90;;;;;;5091544;28;20251;-91
2024/02/25 06:58:26;;;;;;;1.23;1.23;;;5.90;99.90;;;;;;5074687;28;20263;-91
2024/02/25 07:00:52;;;;;;;1.20;0.77;;;5.90;99.90;;;;;;5075251;28;20522;-91
2024/02/25 07:03:18;;;;;;;1.40;1.30;;;6.20;99.90;;;;;;5091518;28;20234;-90
2024/02/25 07:05:44;;;;;;;1.53;1.43;;;6.30;99.90;;;;;;5058392;28;20661;-92
2024/02/25 07:08:10;;;;;;;1.20;0.93;;;5.80;99.90;;;;;;5057857;28;20233;-91
2024/02/25 07:10:36;;;;;;;1.23;1.13;;;6.30;99.90;;;;;;5092340;28;20580;-91
2024/02/25 07:13:03;;;;;;;3.07;1.40;;;6.10;99.90;;;;;;5090922;28;20287;-91
2024/02/25 07:15:29;;;;;;;1.27;1.17;;;6.30;99.90;;;;;;5075191;28;20253;-91
2024/02/25 07:17:55;;;;;;;1.17;1.17;;;6.20;99.90;;;;;;5074733;28;20660;-91
2024/02/25 07:20:21;;;;;;;2.53;2.40;;;6.00;99.90;;;;;;5074563;28;20251;-92
2024/02/25 07:22:49;;;;;;;1.23;1.23;;;6.00;99.90;;;;;;5075064;28;20683;-90
2024/02/25 07:25:15;;;;;;;0.57;0.57;;;5.90;99.90;;;;;;5092254;28;20212;-91
2024/02/25 07:27:41;;;;;;;1.00;1.00;;;6.20;99.90;;;;;;5075403;28;20199;-90
2024/02/25 07:30:07;;;;;;;2.50;2.40;;;6.30;99.90;;;;;;5074899;28;20232;-90
2024/02/25 07:32:35;;;;;;;1.70;1.63;;;6.00;99.90;;;;;;5075483;28;20228;-89
2024/02/25 07:35:03;;;;;;;1.73;1.13;;;6.10;99.90;;;;;;5074882;28;20342;-91
2024/02/25 07:37:29;;;;;;;1.33;1.07;;;6.10;99.90;;;;;;5092007;28;20327;-91
2024/02/25 07:39:58;;;;;;;1.00;0.97;;;6.00;99.90;;;;;;5075362;28;20267;-91
2024/02/25 07:42:23;;;;;;;0.70;0.70;;;6.20;99.90;;;;;;5074613;28;20252;-92
2024/02/25 07:44:52;;;;;;;1.60;1.50;;;6.50;99.90;;;;;;5066092;28;20236;-92
2024/02/25 07:47:21;;;;;;;8.83;1.83;;;6.10;99.90;;;;;;5075279;28;20229;-90
2024/02/25 07:49:47;;;;;;;2.70;2.50;;;6.40;99.90;;;;;;5093021;28;20255;-93
2024/02/25 07:52:13;;;;;;;2.47;2.33;;;6.40;99.90;;;;;;5090875;28;20262;-91
2024/02/25 07:54:41;;;;;;;1.43;1.37;;;6.60;99.90;;;;;;5092245;28;20232;-94
2024/02/25 07:57:08;;;;;;;3.13;2.33;;;6.50;99.90;;;;;;5058147;28;20239;-93
2024/02/25 07:59:36;;;;;;;2.67;1.33;;;6.60;99.90;;;;;;5076925;28;20252;-93
2024/02/25 08:02:02;;;;;;;1.23;1.20;;;6.60;99.90;;;;;;5096301;28;20235;-92
2024/02/25 08:04:27;;;;;;;1.47;1.37;;;6.60;99.90;;;;;;5078314;28;20319;-92
2024/02/25 08:06:53;;;;;;;2.00;1.67;;;6.90;99.90;;;;;;5063114;28;20201;-93
2024/02/25 08:09:19;;;;;;;1.50;1.43;;;6.80;99.90;;;;;;5096315;28;20239;-94
2024/02/25 08:11:45;;;;;;;2.03;1.33;;;6.80;99.90;;;;;;5095102;28;20239;-94
2024/02/25 08:14:11;;;;;;;2.20;2.00;;;7.10;99.90;;;;;;5096129;28;20243;-95
2024/02/25 08:16:39;;;;;;;3.50;1.83;;;7.50;99.90;;;;;;5078742;28;20232;-95
2024/02/25 08:19:05;;;;;;;3.23;1.90;;;7.40;99.90;;;;;;5067041;28;20208;-95
2024/02/25 08:21:40;;;;;;;2.23;1.83;;;7.60;99.90;;;;;;5063529;28;20196;-94
2024/02/25 08:24:12;;;;;;;1.67;1.57;;;7.70;99.90;;;;;;5062825;28;20238;-95
2024/02/25 08:26:39;;;;;;;2.77;1.33;;;7.30;99.90;;;;;;5069691;28;20305;-94
2024/02/25 08:29:05;;;;;;;2.53;1.30;;;7.40;99.90;;;;;;5095746;28;20229;-95
2024/02/25 08:31:31;;;;;;;3.73;2.83;;;7.20;99.90;;;;;;5095558;28;20243;-94
2024/02/25 08:34:00;;;;;;;1.20;1.10;;;7.50;99.90;;;;;;5078656;28;20200;-94
2024/02/25 08:36:26;;;;;;;2.27;1.17;;;7.30;99.90;;;;;;5077407;28;20220;-94
2024/02/25 08:38:51;;;;;;;3.80;1.73;;;7.60;99.90;;;;;;5064207;28;20238;-95
2024/02/25 08:41:17;;;;;;;3.27;2.97;;;7.40;99.90;;;;;;5078691;28;20236;-92
2024/02/25 08:43:43;;;;;;;1.33;1.20;;;7.60;99.90;;;;;;5043191;28;20697;-95
2024/02/25 08:46:12;;;;;;;2.80;1.73;;;7.70;99.90;;;;;;5059005;28;20232;-93
2024/02/25 08:48:38;;;;;;;1.17;1.17;;;7.90;99.90;;;;;;5077286;28;20207;-92
2024/02/25 08:51:04;;;;;;;2.10;1.37;;;8.40;99.90;;;;;;5076951;28;20320;-89
2024/02/25 08:53:30;;;;;;;3.00;2.80;;;8.60;99.90;;;;;;5076649;28;20602;-89
2024/02/25 08:55:56;;;;;;;2.67;2.50;;;8.70;99.90;;;;;;5068765;28;20381;-89
2024/02/25 08:58:23;;;;;;;1.27;1.17;;;8.90;99.90;;;;;;5076508;28;20232;-89
2024/02/25 09:00:49;;;;;;;2.10;1.97;;;8.90;99.90;;;;;;5095522;28;20619;-89
2024/02/25 09:03:18;;;;;;;2.33;2.13;;;8.70;99.90;;;;;;5049573;28;20237;-90
2024/02/25 09:05:47;;;;;;;1.53;1.43;;;8.70;99.90;;;;;;5067528;28;20247;-89
2024/02/25 09:08:13;;;;;;;1.80;1.43;;;8.70;99.90;;;;;;5059974;28;20307;-92
2024/02/25 09:10:46;;;;;;;4.13;1.83;;;8.50;99.90;;;;;;5075452;28;20274;-88
2024/02/25 09:13:15;;;;;;;1.73;1.63;;;8.60;99.90;;;;;;5077049;28;20185;-91
2024/02/25 09:15:43;;;;;;;2.17;1.97;;;8.40;99.90;;;;;;5077747;28;20189;-91
2024/02/25 09:18:14;;;;;;;3.40;3.10;;;8.50;99.90;;;;;;5076442;28;20316;-89
2024/02/25 09:20:45;;;;;;;5.23;2.47;;;8.50;99.90;;;;;;5094752;28;20231;-89
2024/02/25 09:23:11;;;;;;;1.70;1.33;;;8.50;99.90;;;;;;5060430;28;20239;-87
2024/02/25 09:25:37;;;;;;;2.67;2.47;;;8.50;99.90;;;;;;5076344;28;20229;-91
2024/02/25 09:28:08;;;;;;;1.97;1.87;;;8.10;99.90;;;;;;5066771;28;20541;-88
2024/02/25 09:30:34;;;;;;;1.60;1.60;;;7.70;99.90;;;;;;5077727;28;20212;-88
2024/02/25 09:33:02;;;;;;;2.30;1.70;;;7.50;99.90;;;;;;5059899;28;20673;-88
2024/02/25 09:35:28;;;;;;;1.57;1.43;;;7.20;99.90;;;;;;5076175;28;20265;-88
2024/02/25 09:37:54;;;;;;;2.13;1.93;;;7.20;99.90;;;;;;5093794;28;20697;-88
2024/02/25 09:40:20;;;;;;;2.00;1.90;;;7.10;99.90;;;;;;5075888;28;20235;-89
2024/02/25 09:42:46;;;;;;;2.57;2.10;;;7.20;99.90;;;;;;5060227;28;20201;-89
2024/02/25 09:45:22;;;;;;;3.60;2.23;;;7.30;99.90;;;;;;5051185;28;20327;-90
2024/02/25 09:47:52;;;;;;;2.70;1.70;;;7.50;99.90;;;;;;5094382;28;20231;-90
2024/02/25 09:50:23;;;;;;;2.87;2.67;;;7.60;99.90;;;;;;5094113;28;20237;-90
2024/02/25 09:52:50;;;;;;;5.50;3.30;;;8.00;99.90;;;;;;5077076;28;20232;-90
2024/02/25 09:55:18;;;;;;;6.70;3.20;;;8.30;99.90;;;;;;5092821;28;20565;-90
2024/02/25 09:57:53;;;;;;;;;;;;;;;;;;;;;
2024/02/25 10:00:20;;;;;;;1.93;1.53;;;8.70;99.90;;;;;;5093833;28;20683;-90
2024/02/25 10:02:45;;;;;;;1.83;1.73;;;8.70;99.90;;;;;;5076008;28;20603;-90
2024/02/25 10:05:19;;;;;;;1.90;1.47;;;8.50;99.90;;;;;;5075639;28;20233;-89
2024/02/25 10:07:45;;;;;;;2.17;2.07;;;8.80;99.90;;;;;;5059048;28;20793;-90
2024/02/25 10:10:12;;;;;;;1.37;1.30;;;9.00;99.90;;;;;;5046977;28;20254;-89
2024/02/25 10:12:42;;;;;;;3.07;1.50;;;9.10;99.90;;;;;;5061574;28;20666;-91
2024/02/25 10:15:10;;;;;;;2.20;2.10;;;8.70;99.90;;;;;;5093964;28;20252;-90
2024/02/25 10:17:45;;;;;;;2.13;2.00;;;8.50;99.90;;;;;;5075861;28;20232;-89
2024/02/25 10:20:11;;;;;;;1.60;1.50;;;8.60;99.90;;;;;;5092595;28;20232;-91
2024/02/25 10:22:40;;;;;;;0.90;0.90;;;8.50;99.90;;;;;;5058655;28;20695;-91
2024/02/25 10:25:09;;;;;;;0.53;0.53;;;8.60;99.90;;;;;;5074942;28;20205;-91
2024/02/25 10:27:35;;;;;;;1.07;0.83;;;8.60;99.90;;;;;;5076017;28;20192;-90
2024/02/25 10:30:08;;;;;;;1.57;1.47;;;8.30;99.90;;;;;;5075132;28;20289;-90
2024/02/25 10:32:35;;;;;;;1.33;1.33;;;8.30;99.90;;;;;;5092545;28;20255;-91
2024/02/25 10:35:04;;;;;;;4.00;1.67;;;8.30;99.90;;;;;;5074806;28;20238;-90
2024/02/25 10:37:30;;;;;;;2.00;1.80;;;8.50;99.90;;;;;;5059061;28;20231;-90
2024/02/25 10:40:05;;;;;;;2.00;1.90;;;8.10;99.90;;;;;;5092717;28;20205;-90
2024/02/25 10:42:33;;;;;;;1.10;1.10;;;7.90;99.90;;;;;;5075782;28;20219;-91
2024/02/25 10:45:00;;;;;;;1.40;1.30;;;7.80;99.90;;;;;;5093060;28;20251;-90
2024/02/25 10:47:30;;;;;;;1.77;1.67;;;7.90;99.90;;;;;;5092509;28;20231;-90
2024/02/25 10:49:58;;;;;;;1.67;0.80;;;8.00;99.90;;;;;;5074341;28;20270;-91
2024/02/25 10:52:28;;;;;;;1.93;0.77;;;7.90;99.90;;;;;;5074453;28;20328;-90
2024/02/25 10:54:59;;;;;;;1.87;1.60;;;7.90;99.90;;;;;;5060193;28;20200;-90
2024/02/25 10:57:25;;;;;;;2.40;2.20;;;7.90;99.90;;;;;;5066050;28;20235;-92
2024/02/25 10:59:53;;;;;;;1.47;1.13;;;7.80;99.90;;;;;;5075619;28;20236;-90
2024/02/25 11:02:23;;;;;;;1.70;1.60;;;8.00;99.90;;;;;;5075216;28;20236;-89
2024/02/25 11:04:57;;;;;;;3.87;1.90;;;8.10;99.90;;;;;;5056812;28;20731;-90
2024/02/25 11:07:26;;;;;;;2.63;1.97;;;8.20;99.90;;;;;;5066921;28;20251;-88
2024/02/25 11:09:52;;;;;;;1.80;1.70;;;8.40;99.90;;;;;;5076317;28;20200;-90
2024/02/25 11:12:22;;;;;;;0.47;0.47;;;7.90;99.90;;;;;;5065291;28;20240;-91
2024/02/25 11:15:06;;;;;;;1.40;1.30;;;7.70;99.90;;;;;;5075583;28;20285;-90
2024/02/25 11:17:43;;;;;;;3.40;1.83;;;7.60;99.90;;;;;;5052547;28;20233;-90
2024/02/25 11:20:16;;;;;;;0.77;0.77;;;7.80;99.90;;;;;;5073244;28;20235;-91
2024/02/25 11:22:50;;;;;;;1.53;1.43;;;7.90;99.90;;;;;;5075084;28;20229;-90
2024/02/25 11:25:32;;;;;;;1.53;1.43;;;7.70;99.90;;;;;;5074721;28;20199;-89
2024/02/25 11:28:09;;;;;;;1.50;1.40;;;7.70;99.90;;;;;;5070699;28;20193;-91
2024/02/25 11:30:49;;;;;;;1.80;1.70;;;7.70;99.90;;;;;;5075704;28;20195;-91
2024/02/25 11:33:33;;;;;;;4.60;2.03;;;7.70;99.90;;;;;;5074969;28;20231;-91
2024/02/25 11:36:19;;;;;;;4.00;1.37;;;7.70;99.90;;;;;;5078742;28;20232;-93
2024/02/25 11:38:49;;;;;;;1.60;1.53;;;7.70;99.90;;;;;;5095539;28;20224;-90
2024/02/25 11:41:18;;;;;;;1.10;0.87;;;7.80;99.90;;;;;;5095959;28;20255;-89
2024/02/25 11:43:44;;;;;;;9.80;1.43;;;7.80;99.90;;;;;;5061049;28;20290;-90
2024/02/25 11:46:18;;;;;;;1.00;0.87;;;7.90;99.90;;;;;;5068182;28;20236;-92
2024/02/25 11:48:43;;;;;;;0.83;0.83;;;7.90;99.90;;;;;;5097170;28;20184;-89
2024/02/25 11:51:09;;;;;;;2.40;1.17;;;8.10;99.90;;;;;;5078826;28;20232;-90
2024/02/25 11:53:35;;;;;;;0.77;0.77;;;7.90;99.90;;;;;;5078562;28;20224;-89
2024/02/25 11:56:01;;;;;;;1.27;1.17;;;8.10;99.90;;;;;;5058198;28;20244;-89
2024/02/25 11:58:27;;;;;;;3.27;1.60;;;8.30;99.90;;;;;;5070276;28;20228;-88
2024/02/25 12:00:55;;;;;;;0.77;0.77;;;8.40;99.90;;;;;;5078693;28;20675;-89
2024/02/25 12:03:23;;;;;;;1.13;1.10;;;8.40;99.90;;;;;;5077686;28;20319;-91
2024/02/25 12:05:50;;;;;;;1.67;1.47;;;8.50;99.90;;;;;;5071162;28;20730;-90
2024/02/25 12:08:19;;;;;;;1.53;1.43;;;8.60;99.90;;;;;;5078346;28;20309;-89
2024/02/25 12:10:53;;;;;;;1.30;1.23;;;8.70;99.90;;;;;;5060838;28;20562;-90
2024/02/25 12:13:19;;;;;;;1.80;1.07;;;8.90;99.90;;;;;;5085972;28;20262;-90
2024/02/25 12:15:49;;;;;;;1.57;1.47;;;9.40;99.90;;;;;;5061598;28;20196;-89
2024/02/25 12:18:15;;;;;;;1.80;1.70;;;9.80;99.90;;;;;;5094780;28;20244;-89
2024/02/25 12:20:41;;;;;;;2.37;1.93;;;10.00;99.90;;;;;;5095948;28;20236;-91
2024/02/25 12:23:09;;;;;;;1.40;1.30;;;10.30;99.90;;;;;;5077759;28;20236;-89
2024/02/25 12:25:37;;;;;;;2.47;2.27;;;9.90;99.90;;;;;;5059541;28;20237;-90
2024/02/25 12:28:10;;;;;;;2.03;1.93;;;9.80;99.90;;;;;;5065799;28;20253;-89
2024/02/25 12:30:39;;;;;;;3.07;2.47;;;10.10;99.90;;;;;;5078132;28;20188;-91
2024/02/25 12:33:23;;;;;;;2.50;2.30;;;10.20;99.90;;;;;;5069856;28;20275;-87
2024/02/25 12:35:52;;;;;;;2.13;1.43;;;10.30;99.90;;;;;;5068497;28;20275;-90
2024/02/25 12:38:23;;;;;;;2.20;1.53;;;10.40;99.90;;;;;;5094100;28;20260;-91
2024/02/25 12:40:57;;;;;;;2.40;2.20;;;10.80;99.90;;;;;;5060129;28;20288;-90
2024/02/25 12:43:26;;;;;;;1.70;1.43;;;11.10;99.90;;;;;;5075284;28;20235;-92
2024/02/25 12:45:54;;;;;;;2.03;1.83;;;11.20;99.90;;;;;;5093238;28;20372;-92
2024/02/25 12:48:23;;;;;;;1.93;1.83;;;11.20;99.90;;;;;;5077049;28;20228;-90
2024/02/25 12:50:52;;;;;;;4.03;2.60;;;11.20;99.90;;;;;;5093085;28;20204;-88
2024/02/25 12:53:25;;;;;;;1.77;1.67;;;11.50;99.90;;;;;;5078012;28;20201;-89
2024/02/25 12:55:53;;;;;;;2.63;1.70;;;11.50;99.90;;;;;;5064439;28;20260;-88
2024/02/25 12:58:22;;;;;;;5.97;2.40;;;11.60;99.90;;;;;;5059694;28;20236;-89
2024/02/25 13:00:52;;;;;;;3.23;2.47;;;11.70;99.90;;;;;;5095453;28;20228;-89